sensor_id;sensor_type;location;lat;lon;timestamp;temperature;humidity
52941;DHT22;62001;53.366;6.636;2023-05-10T00:01:08;13.70;99.90
52941;DHT22;62001;53.366;6.636;2023-05-10T00:03:34;13.70;99.90
52941;DHT22;62001;53.366;6.636;2023-05-10T00:06:00;13.60;99.90
52941;DHT22;62001;53.366;6.636;2023-05-10T00:08:25;13.70;99.90
52941;DHT22;62001;53.366;6.636;2023-05-10T00:10:52;13.60;99.90
52941;DHT22;62001;53.366;6.636;2023-05-10T00:13:18;13.50;99.90
52941;DHT22;62001;53.366;6.636;2023-05-10T00:15:44;13.50;99.90
52941;DHT22;62001;53.366;6.636;2023-05-10T00:18:10;13.50;99.90
52941;DHT22;62001;53.366;6.636;2023-05-10T00:20:36;13.40;99.90
52941;DHT22;62001;53.366;6.636;2023-05-10T00:23:01;13.30;99.90
52941;DHT22;62001;53.366;6.636;2023-05-10T00:25:27;13.30;99.90
52941;DHT22;62001;53.366;6.636;2023-05-10T00:27:53;13.30;99.90
52941;DHT22;62001;53.366;6.636;2023-05-10T00:30:20;13.20;99.90
52941;DHT22;62001;53.366;6.636;2023-05-10T00:32:46;13.20;99.90
52941;DHT22;62001;53.366;6.636;2023-05-10T00:35:13;13.20;99.90
52941;DHT22;62001;53.366;6.636;2023-05-10T00:37:39;13.10;99.90
52941;DHT22;62001;53.366;6.636;2023-05-10T00:40:06;13.10;99.90
52941;DHT22;62001;53.366;6.636;2023-05-10T00:42:32;13.10;99.90
52941;DHT22;62001;53.366;6.636;2023-05-10T00:44:58;13.10;99.90
52941;DHT22;62001;53.366;6.636;2023-05-10T00:47:24;13.10;99.90
52941;DHT22;62001;53.366;6.636;2023-05-10T00:49:50;13.00;99.90
52941;DHT22;62001;53.366;6.636;2023-05-10T00:52:16;13.00;99.90
52941;DHT22;62001;53.366;6.636;2023-05-10T00:54:42;13.00;99.90
52941;DHT22;62001;53.366;6.636;2023-05-10T00:57:08;13.00;99.90
52941;DHT22;62001;53.366;6.636;2023-05-10T00:59:34;13.00;99.90
52941;DHT22;62001;53.366;6.636;2023-05-10T01:02:01;13.00;99.90
52941;DHT22;62001;53.366;6.636;2023-05-10T01:04:27;13.00;99.90
52941;DHT22;62001;53.366;6.636;2023-05-10T01:06:54;13.00;99.90
52941;DHT22;62001;53.366;6.636;2023-05-10T01:09:21;12.90;99.90
52941;DHT22;62001;53.366;6.636;2023-05-10T01:11:47;13.00;99.90
52941;DHT22;62001;53.366;6.636;2023-05-10T01:14:15;12.90;99.90
52941;DHT22;62001;53.366;6.636;2023-05-10T01:16:44;12.90;99.90
52941;DHT22;62001;53.366;6.636;2023-05-10T01:19:23;12.90;99.90
52941;DHT22;62001;53.366;6.636;2023-05-10T01:22:24;12.90;99.90
52941;DHT22;62001;53.366;6.636;2023-05-10T01:26:14;12.90;99.90
52941;DHT22;62001;53.366;6.636;2023-05-10T01:28:42;12.80;99.90
52941;DHT22;62001;53.366;6.636;2023-05-10T01:34:13;12.80;99.90
52941;DHT22;62001;53.366;6.636;2023-05-10T01:37:04;12.80;99.90
52941;DHT22;62001;53.366;6.636;2023-05-10T01:40:01;12.80;99.90
52941;DHT22;62001;53.366;6.636;2023-05-10T01:42:37;12.80;99.90
52941;DHT22;62001;53.366;6.636;2023-05-10T01:45:38;12.70;99.90
52941;DHT22;62001;53.366;6.636;2023-05-10T01:48:10;12.70;99.90
52941;DHT22;62001;53.366;6.636;2023-05-10T01:50:38;12.70;99.90
52941;DHT22;62001;53.366;6.636;2023-05-10T01:53:08;12.70;99.90
52941;DHT22;62001;53.366;6.636;2023-05-10T01:55:48;12.70;99.90
52941;DHT22;62001;53.366;6.636;2023-05-10T01:58:19;12.70;99.90
52941;DHT22;62001;53.366;6.636;2023-05-10T02:00:47;12.60;99.90
52941;DHT22;62001;53.366;6.636;2023-05-10T02:03:16;12.60;99.90
52941;DHT22;62001;53.366;6.636;2023-05-10T02:05:44;12.60;99.90
52941;DHT22;62001;53.366;6.636;2023-05-10T02:08:13;12.60;99.90
52941;DHT22;62001;53.366;6.636;2023-05-10T02:10:42;12.60;99.90
52941;DHT22;62001;53.366;6.636;2023-05-10T02:13:09;12.60;99.90
52941;DHT22;62001;53.366;6.636;2023-05-10T02:15:37;12.60;99.90
52941;DHT22;62001;53.366;6.636;2023-05-10T02:18:04;12.60;99.90
52941;DHT22;62001;53.366;6.636;2023-05-10T02:20:31;12.60;99.90
52941;DHT22;62001;53.366;6.636;2023-05-10T02:22:58;12.60;99.90
52941;DHT22;62001;53.366;6.636;2023-05-10T02:25:25;12.60;99.90
52941;DHT22;62001;53.366;6.636;2023-05-10T02:27:56;12.60;99.90
52941;DHT22;62001;53.366;6.636;2023-05-10T02:30:23;12.60;99.90
52941;DHT22;62001;53.366;6.636;2023-05-10T02:32:50;12.60;99.90
52941;DHT22;62001;53.366;6.636;2023-05-10T02:35:17;12.60;99.90
52941;DHT22;62001;53.366;6.636;2023-05-10T02:37:45;12.60;99.90
52941;DHT22;62001;53.366;6.636;2023-05-10T02:40:13;12.60;99.90
52941;DHT22;62001;53.366;6.636;2023-05-10T02:42:41;12.50;99.90
52941;DHT22;62001;53.366;6.636;2023-05-10T02:45:13;12.50;99.90
52941;DHT22;62001;53.366;6.636;2023-05-10T02:47:40;12.50;99.90
52941;DHT22;62001;53.366;6.636;2023-05-10T02:50:07;12.50;99.90
52941;DHT22;62001;53.366;6.636;2023-05-10T02:52:40;12.50;99.90
52941;DHT22;62001;53.366;6.636;2023-05-10T02:55:09;12.50;99.90
52941;DHT22;62001;53.366;6.636;2023-05-10T02:57:40;12.50;99.90
52941;DHT22;62001;53.366;6.636;2023-05-10T03:00:07;12.50;99.90
52941;DHT22;62001;53.366;6.636;2023-05-10T03:02:34;12.50;99.90
52941;DHT22;62001;53.366;6.636;2023-05-10T03:05:00;12.50;99.90
52941;DHT22;62001;53.366;6.636;2023-05-10T03:07:25;12.50;99.90
52941;DHT22;62001;53.366;6.636;2023-05-10T03:09:52;12.50;99.90
52941;DHT22;62001;53.366;6.636;2023-05-10T03:18:21;12.50;99.90
52941;DHT22;62001;53.366;6.636;2023-05-10T03:20:49;12.50;99.90
52941;DHT22;62001;53.366;6.636;2023-05-10T03:23:21;12.50;99.90
52941;DHT22;62001;53.366;6.636;2023-05-10T03:25:48;12.50;99.90
52941;DHT22;62001;53.366;6.636;2023-05-10T03:28:17;12.50;99.90
52941;DHT22;62001;53.366;6.636;2023-05-10T03:30:44;12.50;99.90
52941;DHT22;62001;53.366;6.636;2023-05-10T03:33:10;12.50;99.90
52941;DHT22;62001;53.366;6.636;2023-05-10T03:35:36;12.50;99.90
52941;DHT22;62001;53.366;6.636;2023-05-10T03:38:02;12.50;99.90
52941;DHT22;62001;53.366;6.636;2023-05-10T03:40:28;12.50;99.90
52941;DHT22;62001;53.366;6.636;2023-05-10T03:42:57;12.50;99.90
52941;DHT22;62001;53.366;6.636;2023-05-10T03:45:23;12.50;99.90
52941;DHT22;62001;53.366;6.636;2023-05-10T03:47:49;12.40;99.90
52941;DHT22;62001;53.366;6.636;2023-05-10T03:50:14;12.40;99.90
52941;DHT22;62001;53.366;6.636;2023-05-10T03:52:40;12.40;99.90
52941;DHT22;62001;53.366;6.636;2023-05-10T03:55:06;12.40;99.90
52941;DHT22;62001;53.366;6.636;2023-05-10T03:57:33;12.50;99.90
52941;DHT22;62001;53.366;6.636;2023-05-10T03:59:59;12.40;99.90
52941;DHT22;62001;53.366;6.636;2023-05-10T04:02:25;12.40;99.90
52941;DHT22;62001;53.366;6.636;2023-05-10T04:04:51;12.40;99.90
52941;DHT22;62001;53.366;6.636;2023-05-10T04:07:17;12.40;99.90
52941;DHT22;62001;53.366;6.636;2023-05-10T04:09:43;12.40;99.90
52941;DHT22;62001;53.366;6.636;2023-05-10T04:12:09;12.40;99.90
52941;DHT22;62001;53.366;6.636;2023-05-10T04:14:35;12.40;99.90
52941;DHT22;62001;53.366;6.636;2023-05-10T04:17:01;12.40;99.90
52941;DHT22;62001;53.366;6.636;2023-05-10T04:19:33;12.40;99.90
52941;DHT22;62001;53.366;6.636;2023-05-10T04:21:59;12.40;99.90
52941;DHT22;62001;53.366;6.636;2023-05-10T04:24:25;12.40;99.90
52941;DHT22;62001;53.366;6.636;2023-05-10T04:26:51;12.40;99.90
52941;DHT22;62001;53.366;6.636;2023-05-10T04:29:17;12.40;99.90
52941;DHT22;62001;53.366;6.636;2023-05-10T04:31:43;12.40;99.90
52941;DHT22;62001;53.366;6.636;2023-05-10T04:34:08;12.40;99.90
52941;DHT22;62001;53.366;6.636;2023-05-10T04:36:34;12.40;99.90
52941;DHT22;62001;53.366;6.636;2023-05-10T04:39:02;12.40;99.90
52941;DHT22;62001;53.366;6.636;2023-05-10T04:41:31;12.40;99.90
52941;DHT22;62001;53.366;6.636;2023-05-10T04:43:56;12.40;99.90
52941;DHT22;62001;53.366;6.636;2023-05-10T04:46:22;12.40;99.90
52941;DHT22;62001;53.366;6.636;2023-05-10T04:48:48;12.40;99.90
52941;DHT22;62001;53.366;6.636;2023-05-10T04:51:14;12.40;99.90
52941;DHT22;62001;53.366;6.636;2023-05-10T04:53:40;12.40;99.90
52941;DHT22;62001;53.366;6.636;2023-05-10T04:56:06;12.40;99.90
52941;DHT22;62001;53.366;6.636;2023-05-10T04:58:32;12.40;99.90
52941;DHT22;62001;53.366;6.636;2023-05-10T05:01:08;12.40;99.90
52941;DHT22;62001;53.366;6.636;2023-05-10T05:03:34;12.50;99.90
52941;DHT22;62001;53.366;6.636;2023-05-10T05:06:00;12.50;99.90
52941;DHT22;62001;53.366;6.636;2023-05-10T05:08:26;12.50;99.90
52941;DHT22;62001;53.366;6.636;2023-05-10T05:10:52;12.50;99.90
52941;DHT22;62001;53.366;6.636;2023-05-10T05:13:18;12.50;99.90
52941;DHT22;62001;53.366;6.636;2023-05-10T05:15:44;12.60;99.90
52941;DHT22;62001;53.366;6.636;2023-05-10T05:18:10;12.60;99.90
52941;DHT22;62001;53.366;6.636;2023-05-10T05:20:36;12.60;99.90
52941;DHT22;62001;53.366;6.636;2023-05-10T05:23:02;12.60;99.90
52941;DHT22;62001;53.366;6.636;2023-05-10T05:25:28;12.50;99.90
52941;DHT22;62001;53.366;6.636;2023-05-10T05:27:54;12.60;99.90
52941;DHT22;62001;53.366;6.636;2023-05-10T05:30:19;12.60;99.90
52941;DHT22;62001;53.366;6.636;2023-05-10T05:32:45;12.60;99.90
52941;DHT22;62001;53.366;6.636;2023-05-10T05:35:12;12.60;99.90
52941;DHT22;62001;53.366;6.636;2023-05-10T05:37:38;12.60;99.90
52941;DHT22;62001;53.366;6.636;2023-05-10T05:40:04;12.60;99.90
52941;DHT22;62001;53.366;6.636;2023-05-10T05:42:31;12.60;99.90
52941;DHT22;62001;53.366;6.636;2023-05-10T05:44:57;12.60;99.90
52941;DHT22;62001;53.366;6.636;2023-05-10T05:47:23;12.70;99.90
52941;DHT22;62001;53.366;6.636;2023-05-10T05:49:49;12.70;99.90
52941;DHT22;62001;53.366;6.636;2023-05-10T05:52:15;12.70;99.90
52941;DHT22;62001;53.366;6.636;2023-05-10T05:54:40;12.70;99.90
52941;DHT22;62001;53.366;6.636;2023-05-10T05:57:06;12.70;99.90
52941;DHT22;62001;53.366;6.636;2023-05-10T05:59:32;12.70;99.90
52941;DHT22;62001;53.366;6.636;2023-05-10T06:01:58;12.70;99.90
52941;DHT22;62001;53.366;6.636;2023-05-10T06:04:24;12.70;99.90
52941;DHT22;62001;53.366;6.636;2023-05-10T06:06:50;12.70;99.90
52941;DHT22;62001;53.366;6.636;2023-05-10T06:09:16;12.70;99.90
52941;DHT22;62001;53.366;6.636;2023-05-10T06:11:42;12.70;99.90
52941;DHT22;62001;53.366;6.636;2023-05-10T06:14:08;12.60;99.90
52941;DHT22;62001;53.366;6.636;2023-05-10T06:16:34;12.60;99.90
52941;DHT22;62001;53.366;6.636;2023-05-10T06:19:00;12.60;99.90
52941;DHT22;62001;53.366;6.636;2023-05-10T06:21:26;12.60;99.90
52941;DHT22;62001;53.366;6.636;2023-05-10T06:23:52;12.60;99.90
52941;DHT22;62001;53.366;6.636;2023-05-10T06:26:18;12.50;99.90
52941;DHT22;62001;53.366;6.636;2023-05-10T06:28:44;12.50;99.90
52941;DHT22;62001;53.366;6.636;2023-05-10T06:31:09;12.50;99.90
52941;DHT22;62001;53.366;6.636;2023-05-10T06:33:37;12.50;99.90
52941;DHT22;62001;53.366;6.636;2023-05-10T06:36:03;12.40;99.90
52941;DHT22;62001;53.366;6.636;2023-05-10T06:38:29;12.40;99.90
52941;DHT22;62001;53.366;6.636;2023-05-10T06:40:55;12.40;99.90
52941;DHT22;62001;53.366;6.636;2023-05-10T06:43:21;12.40;99.90
52941;DHT22;62001;53.366;6.636;2023-05-10T06:45:48;12.30;99.90
52941;DHT22;62001;53.366;6.636;2023-05-10T06:48:13;12.30;99.90
52941;DHT22;62001;53.366;6.636;2023-05-10T06:50:39;12.30;99.90
52941;DHT22;62001;53.366;6.636;2023-05-10T06:53:05;12.20;99.90
52941;DHT22;62001;53.366;6.636;2023-05-10T06:55:31;12.20;99.90
52941;DHT22;62001;53.366;6.636;2023-05-10T06:57:57;12.20;99.90
52941;DHT22;62001;53.366;6.636;2023-05-10T07:00:22;12.20;99.90
52941;DHT22;62001;53.366;6.636;2023-05-10T07:02:48;12.10;99.90
52941;DHT22;62001;53.366;6.636;2023-05-10T07:05:14;12.10;99.90
52941;DHT22;62001;53.366;6.636;2023-05-10T07:07:41;12.10;99.90
52941;DHT22;62001;53.366;6.636;2023-05-10T07:10:07;12.10;99.90
52941;DHT22;62001;53.366;6.636;2023-05-10T07:12:33;12.10;99.90
52941;DHT22;62001;53.366;6.636;2023-05-10T07:14:59;12.10;99.90
52941;DHT22;62001;53.366;6.636;2023-05-10T07:17:25;12.10;99.90
52941;DHT22;62001;53.366;6.636;2023-05-10T07:19:50;12.10;99.90
52941;DHT22;62001;53.366;6.636;2023-05-10T07:22:16;12.20;99.90
52941;DHT22;62001;53.366;6.636;2023-05-10T07:24:42;12.20;99.90
52941;DHT22;62001;53.366;6.636;2023-05-10T07:27:08;12.20;99.90
52941;DHT22;62001;53.366;6.636;2023-05-10T07:29:35;12.20;99.90
52941;DHT22;62001;53.366;6.636;2023-05-10T07:32:01;12.20;99.90
52941;DHT22;62001;53.366;6.636;2023-05-10T07:34:27;12.20;99.90
52941;DHT22;62001;53.366;6.636;2023-05-10T07:36:54;12.30;99.90
52941;DHT22;62001;53.366;6.636;2023-05-10T07:39:19;12.40;99.90
52941;DHT22;62001;53.366;6.636;2023-05-10T07:41:48;12.50;99.90
52941;DHT22;62001;53.366;6.636;2023-05-10T07:44:14;12.50;99.90
52941;DHT22;62001;53.366;6.636;2023-05-10T07:46:40;12.60;99.90
52941;DHT22;62001;53.366;6.636;2023-05-10T07:49:05;12.60;99.90
52941;DHT22;62001;53.366;6.636;2023-05-10T07:51:31;12.60;99.90
52941;DHT22;62001;53.366;6.636;2023-05-10T07:53:57;12.70;99.90
52941;DHT22;62001;53.366;6.636;2023-05-10T07:58:58;12.80;99.90
52941;DHT22;62001;53.366;6.636;2023-05-10T08:01:25;12.80;99.90
52941;DHT22;62001;53.366;6.636;2023-05-10T08:03:51;12.80;99.90
52941;DHT22;62001;53.366;6.636;2023-05-10T08:06:19;12.80;99.90
52941;DHT22;62001;53.366;6.636;2023-05-10T08:08:46;12.90;99.90
52941;DHT22;62001;53.366;6.636;2023-05-10T08:11:16;12.90;99.90
52941;DHT22;62001;53.366;6.636;2023-05-10T08:13:42;12.90;99.90
52941;DHT22;62001;53.366;6.636;2023-05-10T08:16:07;13.00;99.90
52941;DHT22;62001;53.366;6.636;2023-05-10T08:18:33;13.00;99.90
52941;DHT22;62001;53.366;6.636;2023-05-10T08:20:59;13.10;99.90
52941;DHT22;62001;53.366;6.636;2023-05-10T08:23:25;13.10;99.90
52941;DHT22;62001;53.366;6.636;2023-05-10T08:25:51;13.20;99.90
52941;DHT22;62001;53.366;6.636;2023-05-10T08:28:17;13.20;99.90
52941;DHT22;62001;53.366;6.636;2023-05-10T08:30:43;13.30;99.90
52941;DHT22;62001;53.366;6.636;2023-05-10T08:33:08;13.30;99.90
52941;DHT22;62001;53.366;6.636;2023-05-10T08:35:34;13.30;99.90
52941;DHT22;62001;53.366;6.636;2023-05-10T08:38:00;13.40;99.90
52941;DHT22;62001;53.366;6.636;2023-05-10T08:40:26;13.40;99.90
52941;DHT22;62001;53.366;6.636;2023-05-10T08:43:00;13.50;99.90
52941;DHT22;62001;53.366;6.636;2023-05-10T08:45:32;13.50;99.90
52941;DHT22;62001;53.366;6.636;2023-05-10T08:48:01;13.50;99.90
52941;DHT22;62001;53.366;6.636;2023-05-10T08:50:27;13.50;99.90
52941;DHT22;62001;53.366;6.636;2023-05-10T08:52:55;13.50;99.90
52941;DHT22;62001;53.366;6.636;2023-05-10T08:55:23;13.50;99.90
52941;DHT22;62001;53.366;6.636;2023-05-10T08:57:50;13.60;99.90
52941;DHT22;62001;53.366;6.636;2023-05-10T09:00:17;13.60;99.90
52941;DHT22;62001;53.366;6.636;2023-05-10T09:02:43;13.60;99.90
52941;DHT22;62001;53.366;6.636;2023-05-10T09:05:12;13.70;99.90
52941;DHT22;62001;53.366;6.636;2023-05-10T09:07:38;13.70;99.90
52941;DHT22;62001;53.366;6.636;2023-05-10T09:10:04;13.80;99.90
52941;DHT22;62001;53.366;6.636;2023-05-10T09:12:30;13.90;99.90
52941;DHT22;62001;53.366;6.636;2023-05-10T09:14:58;13.90;99.90
52941;DHT22;62001;53.366;6.636;2023-05-10T09:17:25;14.00;99.90
52941;DHT22;62001;53.366;6.636;2023-05-10T09:20:02;14.00;99.90
52941;DHT22;62001;53.366;6.636;2023-05-10T09:22:35;14.10;99.90
52941;DHT22;62001;53.366;6.636;2023-05-10T09:27:32;14.20;99.90
52941;DHT22;62001;53.366;6.636;2023-05-10T09:29:58;14.20;99.90
52941;DHT22;62001;53.366;6.636;2023-05-10T09:32:40;14.20;99.90
52941;DHT22;62001;53.366;6.636;2023-05-10T09:37:33;14.10;99.90
52941;DHT22;62001;53.366;6.636;2023-05-10T09:39:59;14.10;99.90
52941;DHT22;62001;53.366;6.636;2023-05-10T09:42:25;14.20;99.90
52941;DHT22;62001;53.366;6.636;2023-05-10T09:44:51;14.30;99.90
52941;DHT22;62001;53.366;6.636;2023-05-10T09:47:19;14.40;99.90
52941;DHT22;62001;53.366;6.636;2023-05-10T09:49:52;14.40;99.90
52941;DHT22;62001;53.366;6.636;2023-05-10T09:52:18;14.50;99.90
52941;DHT22;62001;53.366;6.636;2023-05-10T09:54:53;14.50;99.90
52941;DHT22;62001;53.366;6.636;2023-05-10T09:57:23;14.50;99.90
52941;DHT22;62001;53.366;6.636;2023-05-10T09:59:49;14.60;99.90
52941;DHT22;62001;53.366;6.636;2023-05-10T10:02:16;14.80;99.90
52941;DHT22;62001;53.366;6.636;2023-05-10T10:04:42;15.00;99.90
52941;DHT22;62001;53.366;6.636;2023-05-10T10:07:09;15.10;99.90
52941;DHT22;62001;53.366;6.636;2023-05-10T10:09:35;15.20;99.90
52941;DHT22;62001;53.366;6.636;2023-05-10T10:12:02;15.20;99.90
52941;DHT22;62001;53.366;6.636;2023-05-10T10:14:28;15.20;99.90
52941;DHT22;62001;53.366;6.636;2023-05-10T10:16:54;15.20;99.90
52941;DHT22;62001;53.366;6.636;2023-05-10T10:19:21;15.20;99.90
52941;DHT22;62001;53.366;6.636;2023-05-10T10:21:50;15.20;99.90
52941;DHT22;62001;53.366;6.636;2023-05-10T10:24:16;15.20;99.90
52941;DHT22;62001;53.366;6.636;2023-05-10T10:26:43;15.30;99.90
52941;DHT22;62001;53.366;6.636;2023-05-10T10:29:39;15.30;99.90
52941;DHT22;62001;53.366;6.636;2023-05-10T10:35:12;15.40;99.90
52941;DHT22;62001;53.366;6.636;2023-05-10T10:37:44;15.40;99.90
52941;DHT22;62001;53.366;6.636;2023-05-10T10:42:54;15.50;99.90
52941;DHT22;62001;53.366;6.636;2023-05-10T10:45:21;15.60;99.90
52941;DHT22;62001;53.366;6.636;2023-05-10T10:47:47;15.60;99.90
52941;DHT22;62001;53.366;6.636;2023-05-10T10:50:13;15.70;99.90
52941;DHT22;62001;53.366;6.636;2023-05-10T10:52:40;15.70;99.90
52941;DHT22;62001;53.366;6.636;2023-05-10T10:55:11;15.80;99.90
52941;DHT22;62001;53.366;6.636;2023-05-10T11:00:20;15.90;99.90
52941;DHT22;62001;53.366;6.636;2023-05-10T11:02:49;16.00;99.90
52941;DHT22;62001;53.366;6.636;2023-05-10T11:05:38;16.00;99.90
52941;DHT22;62001;53.366;6.636;2023-05-10T11:13:46;16.30;99.90
52941;DHT22;62001;53.366;6.636;2023-05-10T11:16:22;16.30;99.90
52941;DHT22;62001;53.366;6.636;2023-05-10T11:19:03;16.40;99.90
52941;DHT22;62001;53.366;6.636;2023-05-10T11:21:33;16.40;99.90
52941;DHT22;62001;53.366;6.636;2023-05-10T11:24:00;16.40;99.90
52941;DHT22;62001;53.366;6.636;2023-05-10T11:26:31;16.50;99.90
52941;DHT22;62001;53.366;6.636;2023-05-10T11:28:58;16.50;99.90
52941;DHT22;62001;53.366;6.636;2023-05-10T11:31:26;16.50;99.90
52941;DHT22;62001;53.366;6.636;2023-05-10T11:34:00;16.50;99.90
52941;DHT22;62001;53.366;6.636;2023-05-10T11:36:33;16.40;99.90
52941;DHT22;62001;53.366;6.636;2023-05-10T11:38:59;16.30;99.90
52941;DHT22;62001;53.366;6.636;2023-05-10T11:41:26;16.30;99.90
52941;DHT22;62001;53.366;6.636;2023-05-10T11:43:55;16.20;99.90
52941;DHT22;62001;53.366;6.636;2023-05-10T11:46:24;16.20;99.90
52941;DHT22;62001;53.366;6.636;2023-05-10T11:48:51;16.10;99.90
52941;DHT22;62001;53.366;6.636;2023-05-10T11:51:21;16.10;99.90
52941;DHT22;62001;53.366;6.636;2023-05-10T11:53:48;16.20;99.90
52941;DHT22;62001;53.366;6.636;2023-05-10T11:56:14;16.20;99.90
52941;DHT22;62001;53.366;6.636;2023-05-10T11:58:40;16.20;99.90
52941;DHT22;62001;53.366;6.636;2023-05-10T12:01:07;16.20;99.90
52941;DHT22;62001;53.366;6.636;2023-05-10T12:03:34;16.20;99.90
52941;DHT22;62001;53.366;6.636;2023-05-10T12:06:01;16.20;99.90
52941;DHT22;62001;53.366;6.636;2023-05-10T12:08:28;16.30;99.90
52941;DHT22;62001;53.366;6.636;2023-05-10T12:11:07;16.40;99.90
52941;DHT22;62001;53.366;6.636;2023-05-10T12:13:39;16.40;99.90
52941;DHT22;62001;53.366;6.636;2023-05-10T12:16:16;16.50;99.90
52941;DHT22;62001;53.366;6.636;2023-05-10T12:18:42;16.60;99.90
52941;DHT22;62001;53.366;6.636;2023-05-10T12:21:10;16.70;99.90
52941;DHT22;62001;53.366;6.636;2023-05-10T12:23:40;16.80;99.90
52941;DHT22;62001;53.366;6.636;2023-05-10T12:26:09;16.90;99.90
52941;DHT22;62001;53.366;6.636;2023-05-10T12:28:36;16.90;99.90
52941;DHT22;62001;53.366;6.636;2023-05-10T12:31:03;16.90;99.90
52941;DHT22;62001;53.366;6.636;2023-05-10T12:33:40;17.00;99.90
52941;DHT22;62001;53.366;6.636;2023-05-10T12:36:13;17.20;99.90
52941;DHT22;62001;53.366;6.636;2023-05-10T12:38:44;17.30;99.90
52941;DHT22;62001;53.366;6.636;2023-05-10T12:41:15;17.40;99.90
52941;DHT22;62001;53.366;6.636;2023-05-10T12:43:42;17.40;99.90
52941;DHT22;62001;53.366;6.636;2023-05-10T12:46:10;17.50;99.90
52941;DHT22;62001;53.366;6.636;2023-05-10T12:48:37;17.50;99.90
52941;DHT22;62001;53.366;6.636;2023-05-10T12:51:05;17.50;99.90
52941;DHT22;62001;53.366;6.636;2023-05-10T12:53:31;17.60;99.90
52941;DHT22;62001;53.366;6.636;2023-05-10T12:55:57;17.80;99.90
52941;DHT22;62001;53.366;6.636;2023-05-10T12:58:23;17.80;99.90
52941;DHT22;62001;53.366;6.636;2023-05-10T13:00:49;17.80;99.90
52941;DHT22;62001;53.366;6.636;2023-05-10T13:03:17;17.80;99.90
52941;DHT22;62001;53.366;6.636;2023-05-10T13:05:43;17.80;99.90
52941;DHT22;62001;53.366;6.636;2023-05-10T13:08:09;17.80;99.90
52941;DHT22;62001;53.366;6.636;2023-05-10T13:10:35;17.80;99.90
52941;DHT22;62001;53.366;6.636;2023-05-10T13:13:01;17.90;99.90
52941;DHT22;62001;53.366;6.636;2023-05-10T13:15:27;17.90;99.90
52941;DHT22;62001;53.366;6.636;2023-05-10T13:17:53;17.80;99.90
52941;DHT22;62001;53.366;6.636;2023-05-10T13:20:19;17.90;99.90
52941;DHT22;62001;53.366;6.636;2023-05-10T13:22:45;17.80;99.90
52941;DHT22;62001;53.366;6.636;2023-05-10T13:25:11;17.90;99.90
52941;DHT22;62001;53.366;6.636;2023-05-10T13:27:40;18.00;99.90
52941;DHT22;62001;53.366;6.636;2023-05-10T13:30:09;18.00;99.90
52941;DHT22;62001;53.366;6.636;2023-05-10T13:32:36;17.90;99.90
52941;DHT22;62001;53.366;6.636;2023-05-10T13:35:03;18.00;99.90
52941;DHT22;62001;53.366;6.636;2023-05-10T13:37:29;18.10;99.90
52941;DHT22;62001;53.366;6.636;2023-05-10T13:39:55;18.10;99.90
52941;DHT22;62001;53.366;6.636;2023-05-10T13:42:22;18.10;99.90
52941;DHT22;62001;53.366;6.636;2023-05-10T13:44:49;18.10;99.90
52941;DHT22;62001;53.366;6.636;2023-05-10T13:47:15;18.20;99.90
52941;DHT22;62001;53.366;6.636;2023-05-10T13:49:41;18.30;99.90
52941;DHT22;62001;53.366;6.636;2023-05-10T13:52:07;18.30;99.90
52941;DHT22;62001;53.366;6.636;2023-05-10T13:54:34;18.30;99.90
52941;DHT22;62001;53.366;6.636;2023-05-10T13:57:00;18.40;99.90
52941;DHT22;62001;53.366;6.636;2023-05-10T13:59:26;18.50;99.90
52941;DHT22;62001;53.366;6.636;2023-05-10T14:01:51;18.60;99.90
52941;DHT22;62001;53.366;6.636;2023-05-10T14:04:17;18.60;99.90
52941;DHT22;62001;53.366;6.636;2023-05-10T14:06:43;18.50;99.90
52941;DHT22;62001;53.366;6.636;2023-05-10T14:09:09;18.40;99.90
52941;DHT22;62001;53.366;6.636;2023-05-10T14:11:35;18.40;99.90
52941;DHT22;62001;53.366;6.636;2023-05-10T14:14:01;18.50;99.90
52941;DHT22;62001;53.366;6.636;2023-05-10T14:16:27;18.50;99.90
52941;DHT22;62001;53.366;6.636;2023-05-10T14:18:53;18.40;99.90
52941;DHT22;62001;53.366;6.636;2023-05-10T14:21:19;18.00;99.90
52941;DHT22;62001;53.366;6.636;2023-05-10T14:23:44;17.60;99.90
52941;DHT22;62001;53.366;6.636;2023-05-10T14:26:10;17.30;99.90
52941;DHT22;62001;53.366;6.636;2023-05-10T14:28:36;17.20;99.90
52941;DHT22;62001;53.366;6.636;2023-05-10T14:31:02;17.30;99.90
52941;DHT22;62001;53.366;6.636;2023-05-10T14:33:28;17.30;99.90
52941;DHT22;62001;53.366;6.636;2023-05-10T14:35:54;17.30;99.90
52941;DHT22;62001;53.366;6.636;2023-05-10T14:38:22;17.20;99.90
52941;DHT22;62001;53.366;6.636;2023-05-10T14:40:47;17.20;99.90
52941;DHT22;62001;53.366;6.636;2023-05-10T14:43:13;17.30;99.90
52941;DHT22;62001;53.366;6.636;2023-05-10T14:45:39;17.20;99.90
52941;DHT22;62001;53.366;6.636;2023-05-10T14:48:05;17.10;99.90
52941;DHT22;62001;53.366;6.636;2023-05-10T14:50:31;17.10;99.90
52941;DHT22;62001;53.366;6.636;2023-05-10T14:52:58;17.10;99.90
52941;DHT22;62001;53.366;6.636;2023-05-10T14:55:24;17.20;99.90
52941;DHT22;62001;53.366;6.636;2023-05-10T14:57:50;17.30;99.90
52941;DHT22;62001;53.366;6.636;2023-05-10T15:00:16;17.20;99.90
52941;DHT22;62001;53.366;6.636;2023-05-10T15:02:45;17.10;99.90
52941;DHT22;62001;53.366;6.636;2023-05-10T15:05:11;16.90;99.90
52941;DHT22;62001;53.366;6.636;2023-05-10T15:07:36;16.90;99.90
52941;DHT22;62001;53.366;6.636;2023-05-10T15:10:02;17.00;99.90
52941;DHT22;62001;53.366;6.636;2023-05-10T15:12:28;17.00;99.90
52941;DHT22;62001;53.366;6.636;2023-05-10T15:14:54;16.90;99.90
52941;DHT22;62001;53.366;6.636;2023-05-10T15:17:20;16.80;99.90
52941;DHT22;62001;53.366;6.636;2023-05-10T15:19:46;16.70;99.90
52941;DHT22;62001;53.366;6.636;2023-05-10T15:22:11;16.70;99.90
52941;DHT22;62001;53.366;6.636;2023-05-10T15:24:37;16.70;99.90
52941;DHT22;62001;53.366;6.636;2023-05-10T15:27:03;16.60;99.90
52941;DHT22;62001;53.366;6.636;2023-05-10T15:29:29;16.40;99.90
52941;DHT22;62001;53.366;6.636;2023-05-10T15:31:55;16.30;99.90
52941;DHT22;62001;53.366;6.636;2023-05-10T15:34:21;16.10;99.90
52941;DHT22;62001;53.366;6.636;2023-05-10T15:36:47;16.00;99.90
52941;DHT22;62001;53.366;6.636;2023-05-10T15:39:13;15.90;99.90
52941;DHT22;62001;53.366;6.636;2023-05-10T15:41:39;15.90;99.90
52941;DHT22;62001;53.366;6.636;2023-05-10T15:44:05;15.90;99.90
52941;DHT22;62001;53.366;6.636;2023-05-10T15:46:30;15.90;99.90
52941;DHT22;62001;53.366;6.636;2023-05-10T15:48:59;15.70;99.90
52941;DHT22;62001;53.366;6.636;2023-05-10T15:51:25;15.50;99.90
52941;DHT22;62001;53.366;6.636;2023-05-10T15:53:51;15.30;99.90
52941;DHT22;62001;53.366;6.636;2023-05-10T15:56:17;15.10;99.90
52941;DHT22;62001;53.366;6.636;2023-05-10T15:58:43;15.00;99.90
52941;DHT22;62001;53.366;6.636;2023-05-10T16:01:09;15.00;99.90
52941;DHT22;62001;53.366;6.636;2023-05-10T16:03:36;15.00;99.90